createdAt,value
2017-01-25T06:27:08.117Z,0
2017-01-25T06:27:48.096Z,0
2017-01-25T06:28:23.078Z,0
2017-01-25T06:28:57.592Z,0
2017-01-25T06:29:30.320Z,0
2017-01-25T06:30:03.045Z,0
2017-01-25T06:30:35.883Z,0
2017-01-25T06:31:08.605Z,0
2017-01-25T06:31:41.324Z,0
2017-01-25T06:32:14.044Z,0
2017-01-25T06:32:46.770Z,0
2017-01-25T06:33:19.504Z,0
2017-01-25T06:33:52.300Z,0
2017-01-25T06:34:25.015Z,0
2017-01-25T06:34:57.748Z,0
2017-01-25T06:35:30.495Z,0
2017-01-25T06:36:03.223Z,0
2017-01-25T06:36:36.502Z,0
2017-01-25T06:37:09.341Z,0
2017-01-25T06:37:42.118Z,0
2017-01-25T06:38:17.063Z,0
2017-01-25T06:38:50.316Z,0
2017-01-25T06:39:23.431Z,0
2017-01-25T06:39:56.191Z,0
2017-01-25T06:40:30.089Z,0
2017-01-25T06:41:02.826Z,0
2017-01-25T06:41:36.998Z,0
2017-01-25T06:42:13.008Z,0
2017-01-25T06:42:47.444Z,0
2017-01-25T06:43:21.786Z,0
2017-01-25T06:43:56.066Z,0
2017-01-25T06:44:30.451Z,0
2017-01-25T06:45:06.490Z,0
2017-01-25T06:45:40.838Z,0
2017-01-25T06:46:17.651Z,0
2017-01-25T06:46:52.354Z,0
2017-01-25T06:47:26.499Z,0
2017-01-25T06:48:00.434Z,0
2017-01-25T06:48:33.181Z,0
2017-01-25T06:49:05.921Z,0
2017-01-25T06:49:38.678Z,0
2017-01-25T06:50:11.427Z,0
2017-01-25T06:50:44.154Z,0
2017-01-25T06:51:18.519Z,0
2017-01-25T06:51:51.251Z,0
2017-01-25T06:52:24.175Z,0
2017-01-25T06:52:57.017Z,0
2017-01-25T06:53:29.745Z,0
2017-01-25T06:54:03.009Z,0
2017-01-25T06:54:36.106Z,0
2017-01-25T06:55:08.889Z,0
2017-01-25T06:55:41.702Z,0
2017-01-25T06:56:14.440Z,0
2017-01-25T06:56:47.164Z,0
2017-01-25T06:57:19.893Z,0
2017-01-25T06:57:52.824Z,0
2017-01-25T06:58:25.580Z,0
2017-01-25T06:58:58.327Z,0
2017-01-25T06:59:31.779Z,0
2017-01-25T07:00:04.568Z,0
2017-01-25T07:00:37.363Z,0
2017-01-25T07:01:10.125Z,0
2017-01-25T07:01:43.307Z,0
2017-01-25T07:02:16.655Z,0
2017-01-25T07:02:49.409Z,0
2017-01-25T07:03:22.141Z,0
2017-01-25T07:03:54.895Z,0
2017-01-25T07:04:27.630Z,0
2017-01-25T07:05:00.354Z,0
2017-01-25T07:05:34.101Z,0
2017-01-25T07:06:06.826Z,0
2017-01-25T07:06:42.153Z,0
2017-01-25T07:07:14.930Z,0
2017-01-25T07:07:47.962Z,0
2017-01-25T07:08:21.724Z,0
2017-01-25T07:08:55.554Z,0
2017-01-25T07:09:30.164Z,0
2017-01-25T07:10:05.211Z,0
2017-01-25T07:10:38.771Z,0
2017-01-25T07:11:11.507Z,0
2017-01-25T07:11:45.486Z,0
2017-01-25T07:12:22.072Z,0
2017-01-25T07:12:57.114Z,0
2017-01-25T07:13:29.941Z,0
2017-01-25T07:14:02.661Z,0
2017-01-25T07:14:35.392Z,0
2017-01-25T07:15:12.030Z,0
2017-01-25T07:15:48.872Z,0
2017-01-25T07:16:23.745Z,0
2017-01-25T07:16:57.636Z,0
2017-01-25T07:17:31.620Z,0
2017-01-25T07:18:07.570Z,0
2017-01-25T07:18:41.548Z,0
2017-01-25T07:19:16.024Z,0
2017-01-25T07:19:50.211Z,0
2017-01-25T07:20:32.099Z,0
2017-01-25T07:21:06.037Z,0
2017-01-25T07:21:40.082Z,0
2017-01-25T07:22:13.797Z,0
2017-01-25T07:22:56.553Z,0
2017-01-25T07:23:30.456Z,0
2017-01-25T07:24:03.575Z,0
2017-01-25T07:24:37.607Z,0
2017-01-25T07:25:11.703Z,0
2017-01-25T07:25:49.084Z,0
2017-01-25T07:26:24.176Z,0
2017-01-25T07:26:58.739Z,0
2017-01-25T07:27:37.886Z,0
2017-01-25T07:28:11.164Z,0
2017-01-25T07:28:44.226Z,0
2017-01-25T07:29:17.009Z,0
2017-01-25T07:29:53.729Z,0
2017-01-25T07:30:30.523Z,0
2017-01-25T07:31:04.619Z,0
2017-01-25T07:31:40.813Z,0
2017-01-25T07:32:17.548Z,0
2017-01-25T07:32:55.543Z,0
2017-01-25T07:33:31.533Z,0
2017-01-25T07:34:07.773Z,0
2017-01-25T07:34:42.540Z,0
2017-01-25T07:35:16.618Z,0
2017-01-25T07:35:50.630Z,0
2017-01-25T07:36:24.280Z,0
2017-01-25T07:36:58.112Z,0
2017-01-25T07:37:31.978Z,0
2017-01-25T07:38:06.446Z,0
2017-01-25T07:38:41.351Z,0
2017-01-25T07:39:15.038Z,0
2017-01-25T07:39:50.159Z,0
2017-01-25T07:40:23.753Z,0
2017-01-25T07:40:56.920Z,5
2017-01-25T07:41:30.773Z,5
2017-01-25T07:42:04.412Z,5
2017-01-25T07:42:38.045Z,5
2017-01-25T07:43:12.201Z,5
2017-01-25T07:43:46.224Z,5
2017-01-25T07:44:20.530Z,5
2017-01-25T07:44:54.548Z,5
2017-01-25T07:45:27.460Z,5
2017-01-25T07:46:02.139Z,5
2017-01-25T07:46:38.548Z,5
2017-01-25T07:47:13.028Z,5
2017-01-25T07:47:47.667Z,5
2017-01-25T07:48:23.535Z,5
2017-01-25T07:48:56.487Z,5
2017-01-25T07:49:29.404Z,5
2017-01-25T07:50:03.852Z,5
2017-01-25T07:50:39.227Z,5
2017-01-25T07:51:12.945Z,5
2017-01-25T07:51:47.855Z,5
2017-01-25T07:52:21.760Z,5
2017-01-25T07:52:54.642Z,5
2017-01-25T07:53:28.131Z,5
2017-01-25T07:54:01.254Z,5
2017-01-25T07:54:36.811Z,5
2017-01-25T07:55:09.641Z,5
2017-01-25T07:55:45.108Z,5
2017-01-25T07:56:21.532Z,5
2017-01-25T07:56:55.317Z,5
2017-01-25T07:57:28.896Z,5
2017-01-25T07:58:03.305Z,5
2017-01-25T07:58:40.552Z,5
2017-01-25T07:59:13.445Z,5
2017-01-25T07:59:48.130Z,5
2017-01-25T08:00:22.052Z,5
2017-01-25T08:00:54.975Z,5
2017-01-25T08:01:27.899Z,5
2017-01-25T08:02:01.793Z,5
2017-01-25T08:02:35.628Z,5
2017-01-25T08:03:08.592Z,5
2017-01-25T08:03:41.497Z,5
2017-01-25T08:04:14.308Z,5
2017-01-25T08:04:47.082Z,5
2017-01-25T08:05:19.832Z,5
2017-01-25T08:05:52.587Z,5
2017-01-25T08:06:25.310Z,5
2017-01-25T08:06:59.784Z,5
2017-01-25T08:07:32.612Z,5
2017-01-25T08:08:05.365Z,5
2017-01-25T08:08:38.144Z,5
2017-01-25T08:09:10.888Z,5
2017-01-25T08:09:43.732Z,5
2017-01-25T08:10:19.615Z,5
2017-01-25T08:10:52.435Z,5
2017-01-25T08:11:26.079Z,10
2017-01-25T08:11:58.882Z,10
2017-01-25T08:12:31.620Z,10
2017-01-25T08:13:04.402Z,10
2017-01-25T08:13:40.039Z,10
2017-01-25T08:14:13.646Z,10
2017-01-25T08:14:46.427Z,10
2017-01-25T08:15:19.206Z,10
2017-01-25T08:15:51.968Z,10
2017-01-25T08:16:24.998Z,10
2017-01-25T08:16:57.752Z,10
2017-01-25T08:17:30.492Z,10
2017-01-25T08:18:04.098Z,10
2017-01-25T08:18:36.845Z,10
2017-01-25T08:19:15.172Z,10
2017-01-25T08:19:50.341Z,10
2017-01-25T08:20:23.760Z,10
2017-01-25T08:21:00.696Z,10
2017-01-25T08:21:35.246Z,10
2017-01-25T08:22:11.512Z,10
2017-01-25T08:22:47.142Z,10
2017-01-25T08:23:21.365Z,10
2017-01-25T08:23:56.597Z,10
2017-01-25T08:24:31.045Z,10
2017-01-25T08:25:09.543Z,10
2017-01-25T08:25:42.362Z,10
2017-01-25T08:26:15.085Z,10
2017-01-25T08:26:47.820Z,15
2017-01-25T08:27:20.558Z,15
2017-01-25T08:27:54.763Z,15
2017-01-25T08:28:28.636Z,15
2017-01-25T08:29:01.358Z,15
2017-01-25T08:29:34.160Z,15
2017-01-25T08:30:07.601Z,15
2017-01-25T08:30:42.704Z,15
2017-01-25T08:31:16.242Z,15
2017-01-25T08:31:48.975Z,15
2017-01-25T08:32:22.698Z,20
2017-01-25T08:32:55.449Z,20
2017-01-25T08:33:28.175Z,20
2017-01-25T08:34:00.906Z,20
2017-01-25T08:34:33.802Z,20
2017-01-25T08:35:06.738Z,20
2017-01-25T08:35:39.495Z,20
2017-01-25T08:36:12.231Z,20
2017-01-25T08:36:45.296Z,20
2017-01-25T08:37:18.099Z,20
2017-01-25T08:37:50.896Z,20
2017-01-25T08:38:24.859Z,25
2017-01-25T08:39:00.102Z,25
2017-01-25T08:39:34.607Z,25
2017-01-25T08:40:09.169Z,25
2017-01-25T08:40:42.029Z,25
2017-01-25T08:41:15.705Z,25
2017-01-25T08:41:49.305Z,25
2017-01-25T08:42:22.650Z,25
2017-01-25T08:42:55.415Z,30
2017-01-25T08:43:28.216Z,30
2017-01-25T08:44:00.993Z,30
2017-01-25T08:44:33.762Z,30
2017-01-25T08:45:06.519Z,35
2017-01-25T08:45:39.294Z,35
2017-01-25T08:46:13.135Z,35
2017-01-25T08:46:45.922Z,35
2017-01-25T08:47:19.231Z,35
2017-01-25T08:47:52.755Z,35
2017-01-25T08:48:26.672Z,35
2017-01-25T08:49:00.002Z,35
2017-01-25T08:49:32.873Z,35
2017-01-25T08:50:06.307Z,35
2017-01-25T08:50:40.824Z,35
2017-01-25T08:51:14.075Z,35
2017-01-25T08:51:47.508Z,35
2017-01-25T08:52:20.592Z,35
2017-01-25T08:52:54.289Z,35
2017-01-25T08:53:28.662Z,35
2017-01-25T08:54:04.556Z,35
2017-01-25T08:54:38.137Z,35
2017-01-25T08:55:11.842Z,35
2017-01-25T08:55:44.820Z,35
2017-01-25T08:56:17.616Z,35
2017-01-25T08:56:52.506Z,35
2017-01-25T08:57:26.663Z,35
2017-01-25T08:57:59.478Z,35
2017-01-25T08:58:32.204Z,35
2017-01-25T08:59:05.464Z,35
2017-01-25T08:59:38.704Z,35
2017-01-25T09:00:11.467Z,35
2017-01-25T09:00:44.243Z,35
2017-01-25T09:01:16.975Z,35
2017-01-25T09:01:49.846Z,35
2017-01-25T09:02:22.591Z,35
2017-01-25T09:02:55.326Z,35
2017-01-25T09:03:28.059Z,30
2017-01-25T09:04:00.793Z,35
2017-01-25T09:04:33.528Z,35
2017-01-25T09:05:06.261Z,35
2017-01-25T09:05:44.775Z,35
2017-01-25T09:06:23.581Z,35
2017-01-25T09:07:04.127Z,35
2017-01-25T09:07:44.078Z,35
2017-01-25T09:08:25.077Z,35
2017-01-25T09:09:59.082Z,35
2017-01-25T09:10:43.094Z,40
2017-01-25T09:11:19.594Z,40
2017-01-25T09:11:59.575Z,40
2017-01-25T09:12:37.073Z,40
2017-01-25T09:13:19.070Z,40
2017-01-25T09:13:57.593Z,35
2017-01-25T09:14:34.658Z,35
2017-01-25T09:15:12.596Z,35
2017-01-25T09:15:47.564Z,35
2017-01-25T09:16:24.448Z,40
2017-01-25T09:17:01.090Z,40
2017-01-25T09:17:35.818Z,40
2017-01-25T09:18:11.934Z,40
2017-01-25T09:18:50.770Z,45
2017-01-25T09:19:29.581Z,45
2017-01-25T09:20:05.083Z,45
2017-01-25T09:20:39.151Z,50
2017-01-25T09:21:16.267Z,50
2017-01-25T09:21:49.211Z,50
2017-01-25T09:22:25.153Z,55
2017-01-25T09:23:02.096Z,60
2017-01-25T09:23:40.072Z,60
2017-01-25T09:24:17.089Z,65
2017-01-25T09:25:03.577Z,65
2017-01-25T09:25:36.770Z,65
2017-01-25T09:26:13.580Z,65
2017-01-25T09:26:53.567Z,75
2017-01-25T09:27:30.574Z,80
2017-01-25T09:28:05.019Z,80
2017-01-25T09:28:40.813Z,75
2017-01-25T09:29:18.084Z,75
2017-01-25T09:29:52.665Z,75
2017-01-25T09:30:28.574Z,75
2017-01-25T09:31:05.477Z,80
2017-01-25T09:31:40.587Z,80
2017-01-25T09:32:15.759Z,85
2017-01-25T09:32:48.822Z,85
2017-01-25T09:33:25.211Z,90
2017-01-25T09:34:03.204Z,90
2017-01-25T09:34:41.226Z,95
2017-01-25T09:35:17.823Z,95
2017-01-25T09:35:55.586Z,95
2017-01-25T09:36:31.586Z,90
2017-01-25T09:37:10.739Z,90
2017-01-25T09:37:45.781Z,90
2017-01-25T09:38:21.087Z,90
2017-01-25T09:39:04.090Z,90
2017-01-25T09:39:39.085Z,95
2017-01-25T09:40:13.958Z,95
2017-01-25T09:40:47.875Z,100
2017-01-25T09:41:24.079Z,100
2017-01-25T09:41:59.592Z,100
2017-01-25T09:42:33.314Z,95
2017-01-25T09:43:08.598Z,95
2017-01-25T09:43:43.079Z,100
2017-01-25T09:44:19.104Z,100
2017-01-25T09:44:54.081Z,100
2017-01-25T09:45:27.598Z,100
2017-01-25T09:46:06.144Z,95
2017-01-25T09:46:40.165Z,95
2017-01-25T09:47:15.593Z,95
2017-01-25T09:47:50.441Z,95
2017-01-25T09:48:25.092Z,95
2017-01-25T09:48:59.358Z,95
2017-01-25T09:49:34.599Z,95
2017-01-25T09:50:08.602Z,100
2017-01-25T09:50:42.438Z,100
2017-01-25T09:51:16.372Z,100
2017-01-25T09:51:49.994Z,100
2017-01-25T09:52:23.721Z,100
2017-01-25T09:52:56.559Z,100
2017-01-25T09:53:29.543Z,100
2017-01-25T09:54:07.655Z,100
2017-01-25T09:54:43.083Z,100
2017-01-25T09:55:17.129Z,100
2017-01-25T09:55:51.850Z,100
2017-01-25T09:56:29.378Z,100
2017-01-25T09:57:05.098Z,100
2017-01-25T09:57:41.896Z,100
2017-01-25T09:58:17.715Z,100
2017-01-25T09:58:55.609Z,100
2017-01-25T09:59:32.023Z,100
2017-01-25T10:00:11.525Z,100
2017-01-25T10:00:50.103Z,100
2017-01-25T10:01:24.350Z,100
2017-01-25T10:02:00.982Z,100
2017-01-25T10:02:34.688Z,100
2017-01-25T10:03:08.170Z,100
2017-01-25T10:03:44.087Z,100
2017-01-25T10:04:18.652Z,100
2017-01-25T10:04:53.040Z,100
2017-01-25T10:05:27.875Z,100
2017-01-25T10:06:03.343Z,100
2017-01-25T10:06:39.096Z,100
2017-01-25T10:07:12.901Z,105
2017-01-25T10:07:49.586Z,105
2017-01-25T10:08:24.295Z,105
2017-01-25T10:08:58.914Z,100
2017-01-25T10:09:32.799Z,100
2017-01-25T10:10:06.738Z,100
2017-01-25T10:10:40.618Z,100
2017-01-25T10:11:15.696Z,100
2017-01-25T10:11:48.456Z,100
2017-01-25T10:12:21.204Z,100
2017-01-25T10:12:57.595Z,100
2017-01-25T10:13:30.503Z,100
2017-01-25T10:14:05.190Z,105
2017-01-25T10:14:41.800Z,105
2017-01-25T10:15:19.378Z,105
2017-01-25T10:15:55.039Z,105
2017-01-25T10:16:33.357Z,105
2017-01-25T10:17:07.907Z,105
2017-01-25T10:17:41.338Z,110
2017-01-25T10:18:15.267Z,110
2017-01-25T10:18:50.077Z,110
2017-01-25T10:19:24.031Z,105
2017-01-25T10:19:58.434Z,100
2017-01-25T10:20:32.528Z,105
2017-01-25T10:21:07.092Z,105
2017-01-25T10:21:40.151Z,105
2017-01-25T10:22:12.901Z,105
2017-01-25T10:22:45.627Z,105
2017-01-25T10:23:18.396Z,110
2017-01-25T10:23:51.117Z,110
2017-01-25T10:24:24.596Z,110
2017-01-25T10:24:57.637Z,110
2017-01-25T10:25:30.387Z,105
2017-01-25T10:26:03.127Z,100
2017-01-25T10:26:35.857Z,110
2017-01-25T10:27:08.595Z,100
2017-01-25T10:27:41.342Z,105
2017-01-25T10:28:14.073Z,115
2017-01-25T10:28:47.637Z,120
2017-01-25T10:29:20.382Z,115
2017-01-25T10:29:53.105Z,120
2017-01-25T10:30:25.834Z,125
2017-01-25T10:30:58.807Z,110
2017-01-25T10:31:31.547Z,110
2017-01-25T10:32:04.284Z,115
2017-01-25T10:32:37.036Z,120
2017-01-25T10:33:09.769Z,130
2017-01-25T10:33:42.521Z,135
2017-01-25T10:34:15.249Z,135
2017-01-25T10:34:48.006Z,120
2017-01-25T10:35:20.749Z,130
2017-01-25T10:35:53.542Z,120
2017-01-25T10:36:34.987Z,120
2017-01-25T10:37:13.494Z,120
2017-01-25T10:37:46.286Z,115
2017-01-25T10:38:21.657Z,115
2017-01-25T10:38:56.028Z,120
2017-01-25T10:39:29.933Z,115
2017-01-25T10:40:05.347Z,125
2017-01-25T10:40:38.460Z,115
2017-01-25T10:41:11.219Z,120
2017-01-25T10:41:43.934Z,120
2017-01-25T10:42:16.663Z,125
2017-01-25T10:42:49.436Z,120
2017-01-25T10:43:22.207Z,115
2017-01-25T10:43:54.953Z,110
2017-01-25T10:44:27.671Z,115
2017-01-25T10:45:00.496Z,115
2017-01-25T10:45:33.304Z,120
2017-01-25T10:46:06.045Z,125
2017-01-25T10:46:38.776Z,130
2017-01-25T10:47:11.515Z,120
2017-01-25T10:47:44.252Z,115
2017-01-25T10:48:16.988Z,120
2017-01-25T10:48:49.734Z,115
2017-01-25T10:49:22.470Z,110
2017-01-25T10:49:55.212Z,110
2017-01-25T10:50:27.981Z,110
2017-01-25T10:51:00.704Z,105
2017-01-25T10:51:33.446Z,100
2017-01-25T10:52:06.186Z,100
2017-01-25T10:52:38.921Z,100
2017-01-25T10:53:11.666Z,105
2017-01-25T10:53:44.409Z,105
2017-01-25T10:54:17.152Z,105
2017-01-25T10:54:49.899Z,110
2017-01-25T10:55:22.641Z,110
2017-01-25T10:55:55.378Z,110
2017-01-25T10:56:28.104Z,110
2017-01-25T10:57:00.862Z,115
2017-01-25T10:57:33.645Z,115
2017-01-25T10:58:07.585Z,115
2017-01-25T10:58:41.659Z,115
2017-01-25T10:59:16.094Z,115
2017-01-25T10:59:49.746Z,120
2017-01-25T11:00:23.490Z,120
2017-01-25T11:00:56.576Z,120
2017-01-25T11:01:29.374Z,120
2017-01-25T11:02:02.105Z,125
2017-01-25T11:02:34.838Z,125
2017-01-25T11:03:07.948Z,120
2017-01-25T11:03:40.870Z,115
2017-01-25T11:04:15.117Z,120
2017-01-25T11:04:48.028Z,120
2017-01-25T11:05:21.958Z,120
2017-01-25T11:05:59.124Z,120
2017-01-25T11:06:37.629Z,120
2017-01-25T11:07:15.126Z,120
2017-01-25T11:07:51.550Z,120
2017-01-25T11:08:28.632Z,120
2017-01-25T11:09:05.637Z,120
2017-01-25T11:09:46.845Z,120
2017-01-25T11:10:23.057Z,120
2017-01-25T11:12:16.366Z,115
2017-01-25T11:12:51.140Z,120
2017-01-25T11:13:23.887Z,120
2017-01-25T11:13:56.653Z,120
2017-01-25T11:14:30.128Z,120
2017-01-25T11:15:03.929Z,120
2017-01-25T11:15:36.717Z,120
2017-01-25T11:16:10.829Z,120
2017-01-25T11:16:44.624Z,115
2017-01-25T11:17:17.348Z,115
2017-01-25T11:17:50.940Z,110
2017-01-25T11:18:23.798Z,110
2017-01-25T11:18:57.675Z,110
2017-01-25T11:19:30.560Z,110
2017-01-25T11:20:05.487Z,110
2017-01-25T11:20:39.064Z,110
2017-01-25T11:21:11.843Z,110
2017-01-25T11:21:44.569Z,110
2017-01-25T11:22:17.356Z,110
2017-01-25T11:22:50.127Z,115
2017-01-25T11:23:22.971Z,115
2017-01-25T11:23:59.664Z,120
2017-01-25T11:24:33.883Z,120
2017-01-25T11:25:11.275Z,120
2017-01-25T11:25:50.642Z,120
2017-01-25T11:26:27.121Z,125
2017-01-25T11:27:04.809Z,125
2017-01-25T11:27:39.180Z,125
2017-01-25T11:28:14.069Z,125
2017-01-25T11:28:49.294Z,120
2017-01-25T11:29:24.334Z,120
2017-01-25T11:29:58.896Z,120
2017-01-25T11:30:32.242Z,125
2017-01-25T11:31:05.313Z,125
2017-01-25T11:31:38.480Z,125
2017-01-25T11:32:12.437Z,125
2017-01-25T11:32:45.621Z,130
2017-01-25T11:33:22.044Z,130
2017-01-25T11:33:58.221Z,125
2017-01-25T11:34:33.936Z,125
2017-01-25T11:35:12.128Z,120
2017-01-25T11:35:48.287Z,120
2017-01-25T11:36:23.481Z,120
2017-01-25T11:37:00.305Z,120
2017-01-25T11:37:33.860Z,125
2017-01-25T11:38:08.481Z,125
2017-01-25T11:38:42.213Z,125
2017-01-25T11:39:32.983Z,125
2017-01-25T11:40:07.667Z,125
2017-01-25T11:40:41.368Z,125
2017-01-25T11:41:15.642Z,125
2017-01-25T11:41:53.146Z,125
2017-01-25T11:42:28.285Z,125
2017-01-25T11:43:03.561Z,125
2017-01-25T11:43:39.530Z,130
2017-01-25T11:44:24.146Z,130
2017-01-25T11:45:02.630Z,125
2017-01-25T11:45:42.137Z,120
2017-01-25T11:46:22.034Z,120
2017-01-25T11:47:06.659Z,125
2017-01-25T11:47:43.422Z,130
2017-01-25T11:48:25.143Z,125
2017-01-25T11:49:05.180Z,125
2017-01-25T11:49:41.516Z,120
2017-01-25T11:50:24.133Z,115
2017-01-25T11:50:59.852Z,110
2017-01-25T11:51:36.141Z,110
2017-01-25T11:52:19.646Z,110
2017-01-25T11:53:01.138Z,110
2017-01-25T11:53:43.650Z,105
2017-01-25T11:54:22.234Z,105
2017-01-25T11:54:56.240Z,105
2017-01-25T11:55:33.655Z,105
2017-01-25T11:56:10.180Z,105
2017-01-25T11:56:55.145Z,105
2017-01-25T11:57:32.157Z,105
2017-01-25T11:58:06.145Z,100
2017-01-25T11:58:39.730Z,100
2017-01-25T11:59:13.343Z,100
2017-01-25T11:59:47.656Z,100
2017-01-25T12:00:22.138Z,100
2017-01-25T12:00:54.940Z,100
2017-01-25T12:01:29.036Z,100
2017-01-25T12:02:02.331Z,95
2017-01-25T12:02:40.147Z,95
2017-01-25T12:03:16.373Z,95
2017-01-25T12:03:49.580Z,90
2017-01-25T12:04:25.090Z,90
2017-01-25T12:05:01.308Z,90
2017-01-25T12:05:36.376Z,90
2017-01-25T12:06:12.661Z,90
2017-01-25T12:06:51.657Z,95
2017-01-25T12:07:26.936Z,95
2017-01-25T12:08:01.289Z,95
2017-01-25T12:08:35.157Z,95
2017-01-25T12:09:10.742Z,90
2017-01-25T12:09:52.657Z,90
2017-01-25T12:10:29.474Z,95
2017-01-25T12:11:03.868Z,100
2017-01-25T12:11:43.654Z,100
2017-01-25T12:12:22.662Z,105
2017-01-25T12:12:57.339Z,105
2017-01-25T12:13:31.054Z,105
2017-01-25T12:14:05.182Z,100
2017-01-25T12:14:38.372Z,100
2017-01-25T12:15:12.367Z,100
2017-01-25T12:15:45.732Z,100
2017-01-25T12:16:18.559Z,100
2017-01-25T12:16:51.423Z,100
2017-01-25T12:17:24.240Z,100
2017-01-25T12:17:56.990Z,95
2017-01-25T12:18:30.702Z,95
2017-01-25T12:19:03.447Z,95
2017-01-25T12:19:38.786Z,95
2017-01-25T12:20:11.515Z,95
2017-01-25T12:20:44.333Z,95
2017-01-25T12:21:17.158Z,95
2017-01-25T12:21:49.924Z,95
2017-01-25T12:22:22.682Z,95
2017-01-25T12:22:55.405Z,95
2017-01-25T12:23:28.150Z,90
2017-01-25T12:24:00.923Z,90
2017-01-25T12:24:33.699Z,90
2017-01-25T12:25:06.429Z,85
2017-01-25T12:25:39.741Z,85
2017-01-25T12:26:13.337Z,85
2017-01-25T12:26:46.225Z,80
2017-01-25T12:27:19.228Z,80
2017-01-25T12:27:53.089Z,80
2017-01-25T12:28:25.872Z,80
2017-01-25T12:28:58.820Z,80
2017-01-25T12:29:31.562Z,80
2017-01-25T12:30:04.327Z,80
2017-01-25T12:30:37.061Z,80
2017-01-25T12:31:09.880Z,80
2017-01-25T12:31:42.648Z,85
2017-01-25T12:32:16.252Z,85
2017-01-25T12:32:49.843Z,85
2017-01-25T12:33:22.631Z,85
2017-01-25T12:33:56.151Z,85
2017-01-25T12:34:31.773Z,80
2017-01-25T12:35:04.505Z,80
2017-01-25T12:35:39.695Z,80
2017-01-25T12:36:12.415Z,85
2017-01-25T12:36:46.663Z,85
2017-01-25T12:37:20.156Z,85
2017-01-25T12:37:52.907Z,85
2017-01-25T12:38:25.678Z,85
2017-01-25T12:38:58.442Z,85
2017-01-25T12:39:31.175Z,80
2017-01-25T12:40:03.943Z,75
2017-01-25T12:40:36.678Z,70
2017-01-25T12:41:09.471Z,70
2017-01-25T12:41:44.159Z,65
2017-01-25T12:42:16.893Z,65
2017-01-25T12:42:49.636Z,60
2017-01-25T12:43:22.383Z,60
2017-01-25T12:43:55.115Z,60
2017-01-25T12:44:29.793Z,60
2017-01-25T12:45:02.541Z,60
2017-01-25T12:45:35.274Z,55
2017-01-25T12:46:08.005Z,55
2017-01-25T12:46:40.758Z,50
2017-01-25T12:47:13.479Z,45
2017-01-25T12:47:46.246Z,45
2017-01-25T12:48:18.976Z,45
2017-01-25T12:48:51.717Z,40
2017-01-25T12:49:24.527Z,40
2017-01-25T12:49:58.839Z,40
2017-01-25T12:50:34.449Z,40
2017-01-25T12:51:07.182Z,35
2017-01-25T12:51:39.935Z,35
2017-01-25T12:52:12.664Z,35
2017-01-25T12:52:45.406Z,35
2017-01-25T12:53:18.194Z,35
2017-01-25T12:53:52.659Z,35
2017-01-25T12:54:25.407Z,35
2017-01-25T12:54:58.176Z,35
2017-01-25T12:55:32.664Z,30
2017-01-25T12:56:05.472Z,30
2017-01-25T12:56:39.797Z,30
2017-01-25T12:57:12.527Z,30
2017-01-25T12:57:45.246Z,30
2017-01-25T12:58:17.986Z,30
2017-01-25T12:58:50.717Z,30
2017-01-25T12:59:23.516Z,30
2017-01-25T12:59:59.663Z,30
2017-01-25T13:00:33.840Z,30
2017-01-25T13:01:06.571Z,30
2017-01-25T13:01:39.345Z,30
2017-01-25T13:02:14.371Z,30
2017-01-25T13:02:48.057Z,35
2017-01-25T13:03:21.743Z,35
2017-01-25T13:03:58.162Z,35
2017-01-25T13:04:34.824Z,30
2017-01-25T13:05:08.492Z,30
2017-01-25T13:05:43.264Z,30
2017-01-25T13:06:18.945Z,30
2017-01-25T13:06:52.399Z,30
2017-01-25T13:07:26.812Z,30
2017-01-25T13:08:02.041Z,30
2017-01-25T13:08:35.776Z,30
2017-01-25T13:09:09.167Z,30
2017-01-25T13:09:41.944Z,30
2017-01-25T13:10:14.679Z,30
2017-01-25T13:10:47.494Z,30
2017-01-25T13:11:21.911Z,30
2017-01-25T13:11:54.706Z,30
2017-01-25T13:12:29.899Z,30
2017-01-25T13:13:03.045Z,30
2017-01-25T13:13:36.165Z,30
2017-01-25T13:14:08.903Z,30
2017-01-25T13:14:41.661Z,30
2017-01-25T13:15:14.616Z,30
2017-01-25T13:15:47.401Z,35
2017-01-25T13:16:20.510Z,35
2017-01-25T13:16:53.279Z,35
2017-01-25T13:17:26.006Z,35
2017-01-25T13:18:00.327Z,35
2017-01-25T13:18:33.776Z,35
2017-01-25T13:19:07.315Z,30
2017-01-25T13:19:40.061Z,30
2017-01-25T13:20:12.992Z,30
2017-01-25T13:20:45.735Z,30
2017-01-25T13:21:18.479Z,30
2017-01-25T13:21:51.529Z,30
2017-01-25T13:22:24.349Z,30
2017-01-25T13:22:57.188Z,30
2017-01-25T13:23:30.942Z,30
2017-01-25T13:24:03.977Z,30
2017-01-25T13:24:37.432Z,30
2017-01-25T13:25:10.171Z,30
2017-01-25T13:25:42.988Z,30
2017-01-25T13:26:15.720Z,30
2017-01-25T13:26:48.451Z,30
2017-01-25T13:27:22.183Z,30
2017-01-25T13:27:55.838Z,30
2017-01-25T13:28:28.600Z,30
2017-01-25T13:29:01.329Z,30
2017-01-25T13:29:34.137Z,30
2017-01-25T13:30:06.869Z,30
2017-01-25T13:30:40.799Z,30
2017-01-25T13:31:13.524Z,30
2017-01-25T13:31:46.475Z,30
2017-01-25T13:32:19.910Z,30
2017-01-25T13:32:52.779Z,30
2017-01-25T13:33:25.515Z,30
2017-01-25T13:33:58.954Z,30
2017-01-25T13:34:32.802Z,30
2017-01-25T13:35:06.337Z,30
2017-01-25T13:35:39.726Z,30
2017-01-25T13:36:13.813Z,35
2017-01-25T13:36:46.552Z,35
2017-01-25T13:37:19.293Z,30
2017-01-25T13:37:52.067Z,30
2017-01-25T13:38:25.132Z,30
2017-01-25T13:38:59.693Z,30
2017-01-25T13:39:32.889Z,30
2017-01-25T13:40:05.610Z,30
2017-01-25T13:40:39.389Z,30
2017-01-25T13:41:12.137Z,30
2017-01-25T13:41:46.866Z,30
2017-01-25T13:42:20.147Z,30
2017-01-25T13:42:52.984Z,30
2017-01-25T13:43:25.742Z,30
2017-01-25T13:43:58.487Z,30
2017-01-25T13:44:31.337Z,30
2017-01-25T13:45:04.140Z,30
2017-01-25T13:45:37.828Z,30
2017-01-25T13:46:10.800Z,30
2017-01-25T13:46:43.797Z,30
2017-01-25T13:47:16.536Z,30
2017-01-25T13:47:49.440Z,30
2017-01-25T13:48:22.836Z,30
2017-01-25T13:48:55.567Z,30
2017-01-25T13:49:28.474Z,30
2017-01-25T13:50:01.967Z,30
2017-01-25T13:50:35.773Z,30
2017-01-25T13:51:08.767Z,30
2017-01-25T13:51:41.520Z,25
2017-01-25T13:52:14.238Z,25
2017-01-25T13:52:46.977Z,25
2017-01-25T13:53:23.015Z,25
2017-01-25T13:53:56.191Z,30
2017-01-25T13:54:28.928Z,30
2017-01-25T13:55:01.687Z,30
2017-01-25T13:55:34.416Z,30
2017-01-25T13:56:07.143Z,30
2017-01-25T13:56:40.740Z,30
2017-01-25T13:57:14.059Z,30
2017-01-25T13:57:48.441Z,30
2017-01-25T13:58:21.331Z,30
2017-01-25T13:58:54.045Z,30
2017-01-25T13:59:27.296Z,30
2017-01-25T14:00:00.196Z,30
2017-01-25T14:00:32.973Z,30
2017-01-25T14:01:05.767Z,30
2017-01-25T14:01:39.015Z,30
2017-01-25T14:02:11.769Z,30
2017-01-25T14:02:44.502Z,30
2017-01-25T14:03:17.345Z,30
2017-01-25T14:03:50.159Z,30
2017-01-25T14:04:23.288Z,30
2017-01-25T14:04:58.209Z,30
2017-01-25T14:05:31.090Z,30
2017-01-25T14:06:03.810Z,30
2017-01-25T14:06:37.025Z,30
2017-01-25T14:07:09.744Z,30
2017-01-25T14:07:43.746Z,30
2017-01-25T14:08:16.531Z,30
2017-01-25T14:08:49.752Z,30
2017-01-25T14:09:27.326Z,30
2017-01-25T14:10:00.103Z,30
2017-01-25T14:10:32.824Z,30
2017-01-25T14:11:07.202Z,30
2017-01-25T14:11:40.703Z,30
2017-01-25T14:12:13.458Z,30
2017-01-25T14:12:46.782Z,30
2017-01-25T14:13:19.540Z,30
2017-01-25T14:13:52.284Z,30
2017-01-25T14:14:25.395Z,30
2017-01-25T14:14:58.234Z,35
2017-01-25T14:15:30.963Z,35
2017-01-25T14:16:03.702Z,35
2017-01-25T14:16:36.715Z,30
2017-01-25T14:17:10.250Z,30
2017-01-25T14:17:45.343Z,30
2017-01-25T14:18:18.104Z,30
2017-01-25T14:18:51.110Z,30
2017-01-25T14:19:24.658Z,30
2017-01-25T14:19:57.440Z,30
2017-01-25T14:20:30.175Z,30
2017-01-25T14:21:03.326Z,30
2017-01-25T14:21:36.132Z,30
2017-01-25T14:22:08.851Z,30
2017-01-25T14:22:41.885Z,30
2017-01-25T14:23:16.453Z,30
2017-01-25T14:23:49.358Z,30
2017-01-25T14:24:26.205Z,30
2017-01-25T14:25:00.316Z,30
2017-01-25T14:25:33.867Z,30
2017-01-25T14:26:06.754Z,30
2017-01-25T14:26:39.483Z,30
2017-01-25T14:27:12.239Z,30
2017-01-25T14:27:45.003Z,30
2017-01-25T14:28:17.803Z,30
2017-01-25T14:28:51.215Z,30
2017-01-25T14:29:26.093Z,30
2017-01-25T14:29:59.268Z,30
2017-01-25T14:30:32.417Z,30
2017-01-25T14:31:06.456Z,30
2017-01-25T14:31:39.348Z,30
2017-01-25T14:32:12.075Z,30
2017-01-25T14:32:44.813Z,30
2017-01-25T14:33:17.539Z,30
2017-01-25T14:33:50.581Z,30
2017-01-25T14:34:23.410Z,30
2017-01-25T14:34:56.369Z,30
2017-01-25T14:35:29.102Z,30
2017-01-25T14:36:01.860Z,30